sensor_id;sensor_type;location;lat;lon;timestamp;temperature;humidity
2721;DHT22;1368;49.484;11.112;2024-03-22T00:00:32;8.40;99.90
2721;DHT22;1368;49.484;11.112;2024-03-22T00:02:58;8.40;99.90
2721;DHT22;1368;49.484;11.112;2024-03-22T00:05:23;8.40;99.90
2721;DHT22;1368;49.484;11.112;2024-03-22T00:07:49;9.00;99.90
2721;DHT22;1368;49.484;11.112;2024-03-22T00:10:15;8.30;99.90
2721;DHT22;1368;49.484;11.112;2024-03-22T00:12:40;8.50;99.90
2721;DHT22;1368;49.484;11.112;2024-03-22T00:15:06;8.10;99.90
2721;DHT22;1368;49.484;11.112;2024-03-22T00:17:32;8.10;99.90
2721;DHT22;1368;49.484;11.112;2024-03-22T00:19:59;8.00;99.90
2721;DHT22;1368;49.484;11.112;2024-03-22T00:22:25;8.00;99.90
2721;DHT22;1368;49.484;11.112;2024-03-22T00:24:50;8.00;99.90
2721;DHT22;1368;49.484;11.112;2024-03-22T00:27:16;8.30;99.90
2721;DHT22;1368;49.484;11.112;2024-03-22T00:29:41;7.90;99.90
2721;DHT22;1368;49.484;11.112;2024-03-22T00:32:07;7.80;99.90
2721;DHT22;1368;49.484;11.112;2024-03-22T00:34:36;7.70;99.90
2721;DHT22;1368;49.484;11.112;2024-03-22T00:37:01;7.70;99.90
2721;DHT22;1368;49.484;11.112;2024-03-22T00:39:27;7.50;99.90
2721;DHT22;1368;49.484;11.112;2024-03-22T00:41:52;7.50;99.90
2721;DHT22;1368;49.484;11.112;2024-03-22T00:44:18;7.20;99.90
2721;DHT22;1368;49.484;11.112;2024-03-22T00:46:43;7.10;99.90
2721;DHT22;1368;49.484;11.112;2024-03-22T00:49:09;7.10;99.90
2721;DHT22;1368;49.484;11.112;2024-03-22T00:51:35;7.10;99.90
2721;DHT22;1368;49.484;11.112;2024-03-22T00:54:00;7.10;99.90
2721;DHT22;1368;49.484;11.112;2024-03-22T00:56:26;7.10;99.90
2721;DHT22;1368;49.484;11.112;2024-03-22T00:58:51;7.10;99.90
2721;DHT22;1368;49.484;11.112;2024-03-22T01:01:17;7.10;99.90
2721;DHT22;1368;49.484;11.112;2024-03-22T01:03:43;7.10;99.90
2721;DHT22;1368;49.484;11.112;2024-03-22T01:06:08;6.90;99.90
2721;DHT22;1368;49.484;11.112;2024-03-22T01:08:34;6.80;99.90
2721;DHT22;1368;49.484;11.112;2024-03-22T01:10:59;6.60;99.90
2721;DHT22;1368;49.484;11.112;2024-03-22T01:13:25;6.50;99.90
2721;DHT22;1368;49.484;11.112;2024-03-22T01:15:50;6.40;99.90
2721;DHT22;1368;49.484;11.112;2024-03-22T01:18:16;6.50;99.90
2721;DHT22;1368;49.484;11.112;2024-03-22T01:20:41;6.60;99.90
2721;DHT22;1368;49.484;11.112;2024-03-22T01:23:07;6.60;99.90
2721;DHT22;1368;49.484;11.112;2024-03-22T01:25:33;6.50;99.90
2721;DHT22;1368;49.484;11.112;2024-03-22T01:27:58;6.30;99.90
2721;DHT22;1368;49.484;11.112;2024-03-22T01:30:24;6.00;99.90
2721;DHT22;1368;49.484;11.112;2024-03-22T01:32:54;5.90;99.90
2721;DHT22;1368;49.484;11.112;2024-03-22T01:35:19;6.00;99.90
2721;DHT22;1368;49.484;11.112;2024-03-22T01:37:45;6.00;99.90
2721;DHT22;1368;49.484;11.112;2024-03-22T01:40:11;6.10;99.90
2721;DHT22;1368;49.484;11.112;2024-03-22T01:42:36;6.20;99.90
2721;DHT22;1368;49.484;11.112;2024-03-22T01:45:02;6.20;99.90
2721;DHT22;1368;49.484;11.112;2024-03-22T01:47:28;6.20;99.90
2721;DHT22;1368;49.484;11.112;2024-03-22T01:49:55;6.20;99.90
2721;DHT22;1368;49.484;11.112;2024-03-22T01:52:20;6.20;99.90
2721;DHT22;1368;49.484;11.112;2024-03-22T01:54:46;6.20;99.90
2721;DHT22;1368;49.484;11.112;2024-03-22T01:57:12;6.30;99.90
2721;DHT22;1368;49.484;11.112;2024-03-22T01:59:37;6.20;99.90
2721;DHT22;1368;49.484;11.112;2024-03-22T02:02:04;6.20;99.90
2721;DHT22;1368;49.484;11.112;2024-03-22T02:04:30;6.20;99.90
2721;DHT22;1368;49.484;11.112;2024-03-22T02:06:55;6.10;99.90
2721;DHT22;1368;49.484;11.112;2024-03-22T02:09:21;5.80;99.90
2721;DHT22;1368;49.484;11.112;2024-03-22T02:11:47;5.80;99.90
2721;DHT22;1368;49.484;11.112;2024-03-22T02:14:13;5.60;99.90
2721;DHT22;1368;49.484;11.112;2024-03-22T02:16:40;5.30;99.90
2721;DHT22;1368;49.484;11.112;2024-03-22T02:19:06;5.00;99.90
2721;DHT22;1368;49.484;11.112;2024-03-22T02:21:32;4.80;99.90
2721;DHT22;1368;49.484;11.112;2024-03-22T02:23:57;4.70;99.90
2721;DHT22;1368;49.484;11.112;2024-03-22T02:26:23;4.50;99.90
2721;DHT22;1368;49.484;11.112;2024-03-22T02:28:48;4.40;99.90
2721;DHT22;1368;49.484;11.112;2024-03-22T02:31:14;4.40;99.90
2721;DHT22;1368;49.484;11.112;2024-03-22T02:33:40;4.30;99.90
2721;DHT22;1368;49.484;11.112;2024-03-22T02:36:05;4.40;99.90
2721;DHT22;1368;49.484;11.112;2024-03-22T02:38:31;4.50;99.90
2721;DHT22;1368;49.484;11.112;2024-03-22T02:40:58;4.60;99.90
2721;DHT22;1368;49.484;11.112;2024-03-22T02:43:23;4.60;99.90
2721;DHT22;1368;49.484;11.112;2024-03-22T02:45:49;4.40;99.90
2721;DHT22;1368;49.484;11.112;2024-03-22T02:48:15;4.50;99.90
2721;DHT22;1368;49.484;11.112;2024-03-22T02:50:40;4.50;99.90
2721;DHT22;1368;49.484;11.112;2024-03-22T02:53:07;4.70;99.90
2721;DHT22;1368;49.484;11.112;2024-03-22T02:55:37;4.90;99.90
2721;DHT22;1368;49.484;11.112;2024-03-22T02:58:03;5.10;99.90
2721;DHT22;1368;49.484;11.112;2024-03-22T03:00:29;5.00;99.90
2721;DHT22;1368;49.484;11.112;2024-03-22T03:02:54;4.90;99.90
2721;DHT22;1368;49.484;11.112;2024-03-22T03:05:20;5.00;99.90
2721;DHT22;1368;49.484;11.112;2024-03-22T03:07:45;5.10;99.90
2721;DHT22;1368;49.484;11.112;2024-03-22T03:10:12;5.10;99.90
2721;DHT22;1368;49.484;11.112;2024-03-22T03:12:38;5.50;99.90
2721;DHT22;1368;49.484;11.112;2024-03-22T03:15:04;5.00;99.90
2721;DHT22;1368;49.484;11.112;2024-03-22T03:17:29;5.00;99.90
2721;DHT22;1368;49.484;11.112;2024-03-22T03:19:55;4.90;99.90
2721;DHT22;1368;49.484;11.112;2024-03-22T03:22:20;4.70;99.90
2721;DHT22;1368;49.484;11.112;2024-03-22T03:24:46;4.50;99.90
2721;DHT22;1368;49.484;11.112;2024-03-22T03:27:11;4.40;99.90
2721;DHT22;1368;49.484;11.112;2024-03-22T03:29:37;4.40;99.90
2721;DHT22;1368;49.484;11.112;2024-03-22T03:32:03;4.40;99.90
2721;DHT22;1368;49.484;11.112;2024-03-22T03:34:29;4.40;99.90
2721;DHT22;1368;49.484;11.112;2024-03-22T03:36:54;4.50;99.90
2721;DHT22;1368;49.484;11.112;2024-03-22T03:39:20;4.50;99.90
2721;DHT22;1368;49.484;11.112;2024-03-22T03:41:46;4.50;99.90
2721;DHT22;1368;49.484;11.112;2024-03-22T03:44:11;4.60;99.90
2721;DHT22;1368;49.484;11.112;2024-03-22T03:46:37;4.50;99.90
2721;DHT22;1368;49.484;11.112;2024-03-22T03:49:02;4.70;99.90
2721;DHT22;1368;49.484;11.112;2024-03-22T03:51:28;4.90;99.90
2721;DHT22;1368;49.484;11.112;2024-03-22T03:53:53;5.00;99.90
2721;DHT22;1368;49.484;11.112;2024-03-22T03:56:19;4.90;99.90
2721;DHT22;1368;49.484;11.112;2024-03-22T03:58:46;4.70;99.90
2721;DHT22;1368;49.484;11.112;2024-03-22T04:01:11;4.60;99.90
2721;DHT22;1368;49.484;11.112;2024-03-22T04:03:37;4.70;99.90
2721;DHT22;1368;49.484;11.112;2024-03-22T04:06:03;4.80;99.90
2721;DHT22;1368;49.484;11.112;2024-03-22T04:08:29;4.80;99.90
2721;DHT22;1368;49.484;11.112;2024-03-22T04:10:56;4.80;99.90
2721;DHT22;1368;49.484;11.112;2024-03-22T04:13:26;4.90;99.90
2721;DHT22;1368;49.484;11.112;2024-03-22T04:15:52;5.00;99.90
2721;DHT22;1368;49.484;11.112;2024-03-22T04:18:17;5.10;99.90
2721;DHT22;1368;49.484;11.112;2024-03-22T04:20:52;5.20;99.90
2721;DHT22;1368;49.484;11.112;2024-03-22T04:23:18;5.30;99.90
2721;DHT22;1368;49.484;11.112;2024-03-22T04:25:58;5.30;99.90
2721;DHT22;1368;49.484;11.112;2024-03-22T04:28:30;5.30;99.90
2721;DHT22;1368;49.484;11.112;2024-03-22T04:33:21;5.20;99.90
2721;DHT22;1368;49.484;11.112;2024-03-22T04:35:46;5.20;99.90
2721;DHT22;1368;49.484;11.112;2024-03-22T04:38:12;5.20;99.90
2721;DHT22;1368;49.484;11.112;2024-03-22T04:40:37;5.20;99.90
2721;DHT22;1368;49.484;11.112;2024-03-22T04:43:03;5.20;99.90
2721;DHT22;1368;49.484;11.112;2024-03-22T04:45:29;5.30;99.90
2721;DHT22;1368;49.484;11.112;2024-03-22T04:47:54;5.30;99.90
2721;DHT22;1368;49.484;11.112;2024-03-22T04:50:20;5.40;99.90
2721;DHT22;1368;49.484;11.112;2024-03-22T04:52:45;5.40;99.90
2721;DHT22;1368;49.484;11.112;2024-03-22T04:55:11;5.40;99.90
2721;DHT22;1368;49.484;11.112;2024-03-22T04:57:37;5.30;99.90
2721;DHT22;1368;49.484;11.112;2024-03-22T05:00:02;5.30;99.90
2721;DHT22;1368;49.484;11.112;2024-03-22T05:02:28;5.30;99.90
2721;DHT22;1368;49.484;11.112;2024-03-22T05:04:54;5.20;99.90
2721;DHT22;1368;49.484;11.112;2024-03-22T05:07:19;5.20;99.90
2721;DHT22;1368;49.484;11.112;2024-03-22T05:09:45;5.10;99.90
2721;DHT22;1368;49.484;11.112;2024-03-22T05:12:10;5.10;99.90
2721;DHT22;1368;49.484;11.112;2024-03-22T05:14:36;5.50;99.90
2721;DHT22;1368;49.484;11.112;2024-03-22T05:17:02;5.00;99.90
2721;DHT22;1368;49.484;11.112;2024-03-22T05:19:27;5.10;99.90
2721;DHT22;1368;49.484;11.112;2024-03-22T05:21:53;5.10;99.90
2721;DHT22;1368;49.484;11.112;2024-03-22T05:24:18;5.10;99.90
2721;DHT22;1368;49.484;11.112;2024-03-22T05:26:44;4.70;99.90
2721;DHT22;1368;49.484;11.112;2024-03-22T05:29:09;4.60;99.90
2721;DHT22;1368;49.484;11.112;2024-03-22T05:31:47;4.40;99.90
2721;DHT22;1368;49.484;11.112;2024-03-22T05:34:13;4.50;99.90
2721;DHT22;1368;49.484;11.112;2024-03-22T05:36:40;4.60;99.90
2721;DHT22;1368;49.484;11.112;2024-03-22T05:39:05;4.50;99.90
2721;DHT22;1368;49.484;11.112;2024-03-22T05:41:31;4.40;99.90
2721;DHT22;1368;49.484;11.112;2024-03-22T05:43:56;4.60;99.90
2721;DHT22;1368;49.484;11.112;2024-03-22T05:46:22;4.80;99.90
2721;DHT22;1368;49.484;11.112;2024-03-22T05:48:47;4.80;99.90
2721;DHT22;1368;49.484;11.112;2024-03-22T05:51:16;4.80;99.90
2721;DHT22;1368;49.484;11.112;2024-03-22T05:53:41;4.80;99.90
2721;DHT22;1368;49.484;11.112;2024-03-22T05:56:07;4.90;99.90
2721;DHT22;1368;49.484;11.112;2024-03-22T05:58:34;4.90;99.90
2721;DHT22;1368;49.484;11.112;2024-03-22T06:00:59;4.80;99.90
2721;DHT22;1368;49.484;11.112;2024-03-22T06:03:25;4.90;99.90
2721;DHT22;1368;49.484;11.112;2024-03-22T06:05:51;5.10;99.90
2721;DHT22;1368;49.484;11.112;2024-03-22T06:08:20;5.30;99.90
2721;DHT22;1368;49.484;11.112;2024-03-22T06:10:46;5.50;99.90
2721;DHT22;1368;49.484;11.112;2024-03-22T06:13:12;5.70;99.90
2721;DHT22;1368;49.484;11.112;2024-03-22T06:15:37;5.70;99.90
2721;DHT22;1368;49.484;11.112;2024-03-22T06:18:03;5.60;99.90
2721;DHT22;1368;49.484;11.112;2024-03-22T06:20:28;5.80;99.90
2721;DHT22;1368;49.484;11.112;2024-03-22T06:22:56;5.90;99.90
2721;DHT22;1368;49.484;11.112;2024-03-22T06:25:22;5.90;99.90
2721;DHT22;1368;49.484;11.112;2024-03-22T06:27:48;6.40;99.90
2721;DHT22;1368;49.484;11.112;2024-03-22T06:30:13;7.20;99.90
2721;DHT22;1368;49.484;11.112;2024-03-22T06:32:39;8.40;99.90
2721;DHT22;1368;49.484;11.112;2024-03-22T06:35:05;9.50;99.90
2721;DHT22;1368;49.484;11.112;2024-03-22T06:37:31;10.40;99.90
2721;DHT22;1368;49.484;11.112;2024-03-22T06:39:56;11.00;99.90
2721;DHT22;1368;49.484;11.112;2024-03-22T06:42:24;11.80;99.90
2721;DHT22;1368;49.484;11.112;2024-03-22T06:44:49;12.20;99.90
2721;DHT22;1368;49.484;11.112;2024-03-22T06:47:15;12.00;99.90
2721;DHT22;1368;49.484;11.112;2024-03-22T06:49:40;11.70;99.90
2721;DHT22;1368;49.484;11.112;2024-03-22T06:52:06;11.60;99.90
2721;DHT22;1368;49.484;11.112;2024-03-22T06:54:32;11.30;99.90
2721;DHT22;1368;49.484;11.112;2024-03-22T06:56:57;11.10;99.90
2721;DHT22;1368;49.484;11.112;2024-03-22T06:59:23;11.00;99.90
2721;DHT22;1368;49.484;11.112;2024-03-22T07:01:48;11.00;99.90
2721;DHT22;1368;49.484;11.112;2024-03-22T07:04:14;10.50;99.90
2721;DHT22;1368;49.484;11.112;2024-03-22T07:06:39;10.40;99.90
2721;DHT22;1368;49.484;11.112;2024-03-22T07:09:07;10.20;99.90
2721;DHT22;1368;49.484;11.112;2024-03-22T07:11:33;9.80;99.90
2721;DHT22;1368;49.484;11.112;2024-03-22T07:13:58;9.90;99.90
2721;DHT22;1368;49.484;11.112;2024-03-22T07:16:24;10.00;99.90
2721;DHT22;1368;49.484;11.112;2024-03-22T07:18:49;10.00;99.90
2721;DHT22;1368;49.484;11.112;2024-03-22T07:21:15;10.10;99.90
2721;DHT22;1368;49.484;11.112;2024-03-22T07:23:41;10.50;99.90
2721;DHT22;1368;49.484;11.112;2024-03-22T07:26:06;9.90;99.90
2721;DHT22;1368;49.484;11.112;2024-03-22T07:28:33;10.00;99.90
2721;DHT22;1368;49.484;11.112;2024-03-22T07:30:59;9.90;99.90
2721;DHT22;1368;49.484;11.112;2024-03-22T07:33:24;9.90;99.90
2721;DHT22;1368;49.484;11.112;2024-03-22T07:35:50;10.00;99.90
2721;DHT22;1368;49.484;11.112;2024-03-22T07:38:16;10.40;99.90
2721;DHT22;1368;49.484;11.112;2024-03-22T07:40:41;10.40;99.90
2721;DHT22;1368;49.484;11.112;2024-03-22T07:43:07;10.40;99.90
2721;DHT22;1368;49.484;11.112;2024-03-22T07:45:34;10.60;99.90
2721;DHT22;1368;49.484;11.112;2024-03-22T07:48:00;10.70;99.90
2721;DHT22;1368;49.484;11.112;2024-03-22T07:50:25;10.70;99.90
2721;DHT22;1368;49.484;11.112;2024-03-22T07:52:51;10.90;99.90
2721;DHT22;1368;49.484;11.112;2024-03-22T07:55:17;11.20;99.90
2721;DHT22;1368;49.484;11.112;2024-03-22T07:57:42;11.40;99.90
2721;DHT22;1368;49.484;11.112;2024-03-22T08:00:08;11.40;99.90
2721;DHT22;1368;49.484;11.112;2024-03-22T08:02:35;11.00;99.90
2721;DHT22;1368;49.484;11.112;2024-03-22T08:05:01;11.40;99.90
2721;DHT22;1368;49.484;11.112;2024-03-22T08:07:27;11.50;99.90
2721;DHT22;1368;49.484;11.112;2024-03-22T08:09:53;11.30;99.90
2721;DHT22;1368;49.484;11.112;2024-03-22T08:12:21;11.40;99.90
2721;DHT22;1368;49.484;11.112;2024-03-22T08:14:46;12.20;99.90
2721;DHT22;1368;49.484;11.112;2024-03-22T08:17:12;11.80;99.90
2721;DHT22;1368;49.484;11.112;2024-03-22T08:19:38;11.90;99.90
2721;DHT22;1368;49.484;11.112;2024-03-22T08:22:04;12.20;99.90
2721;DHT22;1368;49.484;11.112;2024-03-22T08:24:30;12.30;99.90
2721;DHT22;1368;49.484;11.112;2024-03-22T08:26:55;12.30;99.90
2721;DHT22;1368;49.484;11.112;2024-03-22T08:29:21;12.30;99.90
2721;DHT22;1368;49.484;11.112;2024-03-22T08:31:47;12.20;99.90
2721;DHT22;1368;49.484;11.112;2024-03-22T08:34:12;12.40;99.90
2721;DHT22;1368;49.484;11.112;2024-03-22T08:36:38;12.70;99.90
2721;DHT22;1368;49.484;11.112;2024-03-22T08:39:04;13.10;99.90
2721;DHT22;1368;49.484;11.112;2024-03-22T08:41:32;13.00;99.90
2721;DHT22;1368;49.484;11.112;2024-03-22T08:43:57;13.00;99.90
2721;DHT22;1368;49.484;11.112;2024-03-22T08:46:23;13.30;99.90
2721;DHT22;1368;49.484;11.112;2024-03-22T08:48:51;13.30;99.90
2721;DHT22;1368;49.484;11.112;2024-03-22T08:51:17;13.70;99.90
2721;DHT22;1368;49.484;11.112;2024-03-22T08:53:42;14.80;99.90
2721;DHT22;1368;49.484;11.112;2024-03-22T08:56:08;16.10;99.90
2721;DHT22;1368;49.484;11.112;2024-03-22T08:58:34;17.00;99.90
2721;DHT22;1368;49.484;11.112;2024-03-22T09:00:59;17.90;99.90
2721;DHT22;1368;49.484;11.112;2024-03-22T09:03:25;18.40;99.90
2721;DHT22;1368;49.484;11.112;2024-03-22T09:05:53;18.50;99.90
2721;DHT22;1368;49.484;11.112;2024-03-22T09:08:20;18.40;99.90
2721;DHT22;1368;49.484;11.112;2024-03-22T09:10:47;18.80;99.90
2721;DHT22;1368;49.484;11.112;2024-03-22T09:13:13;18.50;99.90
2721;DHT22;1368;49.484;11.112;2024-03-22T09:15:39;18.50;99.90
2721;DHT22;1368;49.484;11.112;2024-03-22T09:18:04;18.60;99.90
2721;DHT22;1368;49.484;11.112;2024-03-22T09:20:30;18.50;99.90
2721;DHT22;1368;49.484;11.112;2024-03-22T09:22:56;18.60;99.90
2721;DHT22;1368;49.484;11.112;2024-03-22T09:25:23;19.30;99.90
2721;DHT22;1368;49.484;11.112;2024-03-22T09:27:49;19.80;99.90
2721;DHT22;1368;49.484;11.112;2024-03-22T09:30:15;20.50;99.50
2721;DHT22;1368;49.484;11.112;2024-03-22T09:32:41;20.80;98.40
2721;DHT22;1368;49.484;11.112;2024-03-22T09:35:08;21.20;98.00
2721;DHT22;1368;49.484;11.112;2024-03-22T09:37:33;21.50;96.40
2721;DHT22;1368;49.484;11.112;2024-03-22T09:39:59;21.60;98.60
2721;DHT22;1368;49.484;11.112;2024-03-22T09:42:25;22.10;96.50
2721;DHT22;1368;49.484;11.112;2024-03-22T09:44:51;23.50;96.10
2721;DHT22;1368;49.484;11.112;2024-03-22T09:47:18;22.80;95.10
2721;DHT22;1368;49.484;11.112;2024-03-22T09:49:44;22.40;94.20
2721;DHT22;1368;49.484;11.112;2024-03-22T09:52:13;22.40;95.90
2721;DHT22;1368;49.484;11.112;2024-03-22T09:54:45;22.80;94.90
2721;DHT22;1368;49.484;11.112;2024-03-22T09:57:15;22.40;93.70
2721;DHT22;1368;49.484;11.112;2024-03-22T09:59:47;22.90;94.80
2721;DHT22;1368;49.484;11.112;2024-03-22T10:02:13;22.70;94.60
2721;DHT22;1368;49.484;11.112;2024-03-22T10:04:42;23.20;94.10
2721;DHT22;1368;49.484;11.112;2024-03-22T10:07:08;23.70;93.40
2721;DHT22;1368;49.484;11.112;2024-03-22T10:09:36;23.50;92.80
2721;DHT22;1368;49.484;11.112;2024-03-22T10:12:02;23.20;92.90
2721;DHT22;1368;49.484;11.112;2024-03-22T10:14:29;23.40;92.50
2721;DHT22;1368;49.484;11.112;2024-03-22T10:16:56;23.80;92.40
2721;DHT22;1368;49.484;11.112;2024-03-22T10:19:22;24.40;91.20
2721;DHT22;1368;49.484;11.112;2024-03-22T10:22:02;24.40;91.00
2721;DHT22;1368;49.484;11.112;2024-03-22T10:24:31;24.20;90.60
2721;DHT22;1368;49.484;11.112;2024-03-22T10:27:00;23.00;91.50
2721;DHT22;1368;49.484;11.112;2024-03-22T10:29:26;22.50;92.80
2721;DHT22;1368;49.484;11.112;2024-03-22T10:31:52;22.70;93.60
2721;DHT22;1368;49.484;11.112;2024-03-22T10:34:24;23.00;93.00
2721;DHT22;1368;49.484;11.112;2024-03-22T10:36:49;23.40;92.60
2721;DHT22;1368;49.484;11.112;2024-03-22T10:39:18;24.00;92.50
2721;DHT22;1368;49.484;11.112;2024-03-22T10:41:45;23.60;91.40
2721;DHT22;1368;49.484;11.112;2024-03-22T10:44:12;23.80;91.20
2721;DHT22;1368;49.484;11.112;2024-03-22T10:46:38;23.70;91.80
2721;DHT22;1368;49.484;11.112;2024-03-22T10:49:05;23.50;91.00
2721;DHT22;1368;49.484;11.112;2024-03-22T10:51:34;23.90;91.80
2721;DHT22;1368;49.484;11.112;2024-03-22T10:54:02;24.50;92.70
2721;DHT22;1368;49.484;11.112;2024-03-22T10:56:29;23.90;90.10
2721;DHT22;1368;49.484;11.112;2024-03-22T10:58:55;23.60;90.00
2721;DHT22;1368;49.484;11.112;2024-03-22T11:01:25;22.90;89.60
2721;DHT22;1368;49.484;11.112;2024-03-22T11:03:51;22.40;89.60
2721;DHT22;1368;49.484;11.112;2024-03-22T11:06:20;23.00;91.00
2721;DHT22;1368;49.484;11.112;2024-03-22T11:08:50;24.20;91.40
2721;DHT22;1368;49.484;11.112;2024-03-22T11:11:18;23.70;89.40
2721;DHT22;1368;49.484;11.112;2024-03-22T11:13:47;23.50;86.80
2721;DHT22;1368;49.484;11.112;2024-03-22T11:16:14;23.10;88.20
2721;DHT22;1368;49.484;11.112;2024-03-22T11:18:40;22.90;89.90
2721;DHT22;1368;49.484;11.112;2024-03-22T11:21:05;22.40;88.60
2721;DHT22;1368;49.484;11.112;2024-03-22T11:23:37;22.10;87.60
2721;DHT22;1368;49.484;11.112;2024-03-22T11:26:03;21.80;90.20
2721;DHT22;1368;49.484;11.112;2024-03-22T11:28:32;22.00;90.20
2721;DHT22;1368;49.484;11.112;2024-03-22T11:30:58;22.40;88.60
2721;DHT22;1368;49.484;11.112;2024-03-22T11:33:23;22.50;85.20
2721;DHT22;1368;49.484;11.112;2024-03-22T11:35:49;22.40;88.10
2721;DHT22;1368;49.484;11.112;2024-03-22T11:38:15;22.80;88.60
2721;DHT22;1368;49.484;11.112;2024-03-22T11:40:42;22.50;88.00
2721;DHT22;1368;49.484;11.112;2024-03-22T11:43:09;23.40;87.30
2721;DHT22;1368;49.484;11.112;2024-03-22T11:45:35;23.50;86.50
2721;DHT22;1368;49.484;11.112;2024-03-22T11:48:03;23.30;84.70
2721;DHT22;1368;49.484;11.112;2024-03-22T11:50:29;23.20;83.90
2721;DHT22;1368;49.484;11.112;2024-03-22T11:52:56;23.10;84.10
2721;DHT22;1368;49.484;11.112;2024-03-22T11:55:21;22.70;82.60
2721;DHT22;1368;49.484;11.112;2024-03-22T11:57:50;22.20;83.20
2721;DHT22;1368;49.484;11.112;2024-03-22T12:00:18;22.20;86.50
2721;DHT22;1368;49.484;11.112;2024-03-22T12:02:44;21.80;83.00
2721;DHT22;1368;49.484;11.112;2024-03-22T12:05:10;21.90;84.50
2721;DHT22;1368;49.484;11.112;2024-03-22T12:07:37;22.20;86.00
2721;DHT22;1368;49.484;11.112;2024-03-22T12:10:03;22.40;84.40
2721;DHT22;1368;49.484;11.112;2024-03-22T12:12:29;21.90;82.50
2721;DHT22;1368;49.484;11.112;2024-03-22T12:14:55;21.40;84.50
2721;DHT22;1368;49.484;11.112;2024-03-22T12:17:21;21.80;85.10
2721;DHT22;1368;49.484;11.112;2024-03-22T12:19:46;22.50;86.60
2721;DHT22;1368;49.484;11.112;2024-03-22T12:22:12;22.90;83.20
2721;DHT22;1368;49.484;11.112;2024-03-22T12:24:38;21.90;86.40
2721;DHT22;1368;49.484;11.112;2024-03-22T12:27:04;22.20;85.60
2721;DHT22;1368;49.484;11.112;2024-03-22T12:29:32;22.40;84.20
2721;DHT22;1368;49.484;11.112;2024-03-22T12:31:58;22.70;84.90
2721;DHT22;1368;49.484;11.112;2024-03-22T12:34:26;22.30;86.50
2721;DHT22;1368;49.484;11.112;2024-03-22T12:36:51;22.40;85.50
2721;DHT22;1368;49.484;11.112;2024-03-22T12:39:17;22.30;86.60
2721;DHT22;1368;49.484;11.112;2024-03-22T12:41:42;22.50;86.50
2721;DHT22;1368;49.484;11.112;2024-03-22T12:44:08;22.70;87.50
2721;DHT22;1368;49.484;11.112;2024-03-22T12:46:33;22.70;85.90
2721;DHT22;1368;49.484;11.112;2024-03-22T12:48:59;22.90;84.60
2721;DHT22;1368;49.484;11.112;2024-03-22T12:51:25;22.80;85.10
2721;DHT22;1368;49.484;11.112;2024-03-22T12:53:51;22.60;86.20
2721;DHT22;1368;49.484;11.112;2024-03-22T12:56:16;22.60;86.90
2721;DHT22;1368;49.484;11.112;2024-03-22T12:58:42;22.60;84.20
2721;DHT22;1368;49.484;11.112;2024-03-22T13:01:09;22.60;82.50
2721;DHT22;1368;49.484;11.112;2024-03-22T13:03:36;21.90;87.00
2721;DHT22;1368;49.484;11.112;2024-03-22T13:06:03;22.40;86.80
2721;DHT22;1368;49.484;11.112;2024-03-22T13:08:31;21.60;85.10
2721;DHT22;1368;49.484;11.112;2024-03-22T13:10:56;21.70;86.80
2721;DHT22;1368;49.484;11.112;2024-03-22T13:13:22;21.40;84.90
2721;DHT22;1368;49.484;11.112;2024-03-22T13:15:48;21.60;86.60
2721;DHT22;1368;49.484;11.112;2024-03-22T13:18:13;21.40;85.10
2721;DHT22;1368;49.484;11.112;2024-03-22T13:20:39;21.40;87.50
2721;DHT22;1368;49.484;11.112;2024-03-22T13:23:05;21.80;85.80
2721;DHT22;1368;49.484;11.112;2024-03-22T13:25:31;22.20;85.00
2721;DHT22;1368;49.484;11.112;2024-03-22T13:27:56;21.80;84.50
2721;DHT22;1368;49.484;11.112;2024-03-22T13:30:22;22.00;83.70
2721;DHT22;1368;49.484;11.112;2024-03-22T13:32:48;21.90;83.00
2721;DHT22;1368;49.484;11.112;2024-03-22T13:35:13;21.90;84.00
2721;DHT22;1368;49.484;11.112;2024-03-22T13:37:40;21.70;86.50
2721;DHT22;1368;49.484;11.112;2024-03-22T13:40:08;21.60;84.50
2721;DHT22;1368;49.484;11.112;2024-03-22T13:42:34;21.70;85.70
2721;DHT22;1368;49.484;11.112;2024-03-22T13:44:59;22.10;86.40
2721;DHT22;1368;49.484;11.112;2024-03-22T13:47:26;21.60;85.50
2721;DHT22;1368;49.484;11.112;2024-03-22T13:49:53;22.20;86.60
2721;DHT22;1368;49.484;11.112;2024-03-22T13:52:18;21.80;85.40
2721;DHT22;1368;49.484;11.112;2024-03-22T13:54:46;21.90;84.60
2721;DHT22;1368;49.484;11.112;2024-03-22T13:57:11;21.90;85.00
2721;DHT22;1368;49.484;11.112;2024-03-22T13:59:37;22.00;84.00
2721;DHT22;1368;49.484;11.112;2024-03-22T14:02:03;21.90;85.60
2721;DHT22;1368;49.484;11.112;2024-03-22T14:04:28;22.10;85.00
2721;DHT22;1368;49.484;11.112;2024-03-22T14:06:54;21.80;79.90
2721;DHT22;1368;49.484;11.112;2024-03-22T14:09:20;21.40;82.00
2721;DHT22;1368;49.484;11.112;2024-03-22T14:11:45;20.90;83.70
2721;DHT22;1368;49.484;11.112;2024-03-22T14:14:14;21.60;84.20
2721;DHT22;1368;49.484;11.112;2024-03-22T14:16:40;21.20;84.50
2721;DHT22;1368;49.484;11.112;2024-03-22T14:19:07;21.00;81.90
2721;DHT22;1368;49.484;11.112;2024-03-22T14:21:32;21.50;83.20
2721;DHT22;1368;49.484;11.112;2024-03-22T14:23:58;20.90;80.50
2721;DHT22;1368;49.484;11.112;2024-03-22T14:26:24;20.60;81.90
2721;DHT22;1368;49.484;11.112;2024-03-22T14:28:49;21.20;81.90
2721;DHT22;1368;49.484;11.112;2024-03-22T14:31:16;20.40;81.80
2721;DHT22;1368;49.484;11.112;2024-03-22T14:33:42;20.40;81.80
2721;DHT22;1368;49.484;11.112;2024-03-22T14:36:08;20.30;82.90
2721;DHT22;1368;49.484;11.112;2024-03-22T14:38:35;20.50;83.30
2721;DHT22;1368;49.484;11.112;2024-03-22T14:41:00;20.90;84.20
2721;DHT22;1368;49.484;11.112;2024-03-22T14:43:26;21.80;82.50
2721;DHT22;1368;49.484;11.112;2024-03-22T14:45:55;21.30;82.90
2721;DHT22;1368;49.484;11.112;2024-03-22T14:48:24;21.30;80.20
2721;DHT22;1368;49.484;11.112;2024-03-22T14:50:50;20.90;78.40
2721;DHT22;1368;49.484;11.112;2024-03-22T14:53:19;20.80;81.50
2721;DHT22;1368;49.484;11.112;2024-03-22T14:55:59;21.10;80.70
2721;DHT22;1368;49.484;11.112;2024-03-22T14:58:32;21.10;82.60
2721;DHT22;1368;49.484;11.112;2024-03-22T15:01:00;21.10;83.70
2721;DHT22;1368;49.484;11.112;2024-03-22T15:03:26;21.50;80.20
2721;DHT22;1368;49.484;11.112;2024-03-22T15:05:53;21.30;77.70
2721;DHT22;1368;49.484;11.112;2024-03-22T15:08:20;21.40;82.10
2721;DHT22;1368;49.484;11.112;2024-03-22T15:10:46;21.20;81.30
2721;DHT22;1368;49.484;11.112;2024-03-22T15:13:13;21.00;82.00
2721;DHT22;1368;49.484;11.112;2024-03-22T15:15:39;20.80;81.20
2721;DHT22;1368;49.484;11.112;2024-03-22T15:18:05;20.80;82.60
2721;DHT22;1368;49.484;11.112;2024-03-22T15:20:34;20.90;80.60
2721;DHT22;1368;49.484;11.112;2024-03-22T15:23:00;21.00;81.20
2721;DHT22;1368;49.484;11.112;2024-03-22T15:25:26;20.80;81.70
2721;DHT22;1368;49.484;11.112;2024-03-22T15:27:52;20.30;82.30
2721;DHT22;1368;49.484;11.112;2024-03-22T15:30:18;20.70;82.20
2721;DHT22;1368;49.484;11.112;2024-03-22T15:32:44;20.40;82.20
2721;DHT22;1368;49.484;11.112;2024-03-22T15:35:10;20.50;79.20
2721;DHT22;1368;49.484;11.112;2024-03-22T15:37:38;20.70;79.60
2721;DHT22;1368;49.484;11.112;2024-03-22T15:40:06;21.00;81.60
2721;DHT22;1368;49.484;11.112;2024-03-22T15:42:33;20.20;79.00
2721;DHT22;1368;49.484;11.112;2024-03-22T15:44:58;20.00;79.90
2721;DHT22;1368;49.484;11.112;2024-03-22T15:47:28;20.10;79.80